Latest Coastal Weather Observations for Gabo Island (VIC)

IDN60701

Issued at 6:51 am EST Wednesday 22 April 2015 (issued every 10 minutes, with the page automatically refreshed every 10 minutes)

About coastal observations | Map of coastal stations | Coastal observations for NSW | Marine services | Other Formats
Station Details ID: 084016 Name: GABO ISLAND LIGHTHOUSE Lat: -37.57 Lon: 149.92 Height: 15.2 m
Data from the previous 72 hours. | See also: Recent months at Gabo Island (VIC)
Date/Time
EST
Temp

°C
Wind Pressure Rain
since 9am
mm
Weather Cloud Vis
km
Sea
Height
m
Swell
Dir
 
Speed
knots
Gust
knots
hPa Trend Height
m
Period
s
Dir
22/06:30am 14.3 S 17 23 1023.3 - 4.0 - - - - - - -
22/06:00am 14.8 S 19 26 1023.1 - 3.4 - - - - - - -
22/05:30am 15.4 SSE 18 24 1022.8 - 2.8 - - - - - - -
22/05:00am 15.8 S 16 24 1022.6 - 2.6 - - - - - - -
22/04:30am 16.4 S 17 23 1022.6 - 2.2 - - - - - - -
22/04:00am 16.9 SSE 19 25 1022.8 - 2.0 - - - - - - -
22/03:30am 16.7 S 19 23 1022.7 - 2.0 - - - - - - -
22/03:00am 16.6 S 19 25 1023.0 - 2.0 Fine Cloudy 20 2 3.0 - SE
22/02:30am 16.5 S 19 25 1023.2 - 2.0 - - - - - - -
22/02:00am 16.6 S 20 25 1023.8 - 2.0 - - - - - - -
22/01:30am 16.5 S 20 25 1024.1 - 2.0 - - - - - - -
22/01:00am 16.5 SSE 18 22 1024.4 - 2.0 - - - - - - -
22/12:30am 16.4 SSE 20 23 1024.7 - 2.0 - - - - - - -
22/12:00am 16.1 S 18 23 1025.0 - 2.0 - - - - - - -
 
Date/Time
EST
Temp

°C
Wind Pressure Rain
since 9am
mm
Weather Cloud Vis
km
Sea
Height
m
Swell
Dir
 
Speed
knots
Gust
knots
hPa Trend Height
m
Period
s
Dir
21/11:30pm 15.8 S 22 26 1025.3 - 2.0 - - - - - - -
21/11:00pm 15.2 SSE 18 26 1025.8 - 2.0 - - - - - - -
21/10:30pm 16.3 SSE 18 23 1026.1 - 1.6 - - - - - - -
21/10:00pm 16.3 SSE 20 25 1026.5 - 1.6 - - - - - - -
21/09:30pm 16.2 SSE 20 24 1026.8 - 1.6 - - - - - - -
21/09:00pm 15.7 SSE 16 24 1027.0 - 1.4 Recent precip. Cloudy 20 2 3.0 - SE
21/08:34pm 16.0 SE 15 25 1027.0 - 1.4 - - - - - - -
21/08:30pm 16.0 SSE 16 24 1027.0 - 1.4 - - - - - - -
21/08:02pm 15.3 SSE 17 27 1027.4 - 1.4 - - - - - - -
21/08:00pm 15.3 SSE 16 20 1027.4 - 1.4 - - - - - - -
21/07:30pm 15.4 SSE 19 23 1027.7 - 1.0 - - - - - - -
21/07:17pm 14.9 SSE 22 32 1027.7 - 1.0 - - - - - - -
21/07:00pm 15.2 SSE 20 27 1027.8 - 1.0 - - - - - - -
21/06:30pm 14.5 S 19 25 1027.7 - 1.0 - - - - - - -
21/06:11pm 14.7 S 17 27 1027.8 - 0.8 - - - - - - -
21/06:00pm 14.0 S 18 22 1027.8 - 0.8 - - - - - - -
21/05:30pm 15.0 S 18 25 1027.6 - 0.6 - - - - - - -
21/05:16pm 15.4 SSE 15 28 1027.5 - 0.0 - - - - - - -
21/05:00pm 15.3 S 20 25 1027.5 - 0.0 - - - - - - -
21/04:30pm 16.1 S 19 24 1027.4 - 0.0 - - - - - - -
21/04:00pm 16.4 S 18 23 1027.4 - 0.0 - - - - - - -
21/03:30pm 16.6 SSE 20 23 1027.5 - 0.0 - - - - - - -
21/03:00pm 16.2 SSE 16 18 1027.7 - 0.0 Fine Mostly cloudy 40 2 1.0 - SE
21/02:30pm 16.4 SSE 17 22 1027.8 - 0.0 - - - - - - -
21/02:00pm 16.6 S 19 24 1028.0 - 0.0 - - - - - - -
21/01:30pm 16.6 S 18 23 1028.4 - 0.0 - - - - - - -
21/01:00pm 16.2 SSE 19 23 1029.0 - 0.0 - - - - - - -
21/12:30pm 16.2 S 17 20 1029.4 - 0.0 - - - - - - -
21/12:00pm 15.8 SSE 15 22 1029.9 - 0.0 - - - - - - -
21/11:30am 16.1 SSE 16 22 1030.1 - 0.0 - - - - - - -
21/11:00am 16.2 SSE 19 23 1030.4 - 0.0 - - - - - - -
21/10:30am 16.4 SSE 15 21 1030.5 - 0.0 - - - - - - -
21/10:00am 16.0 S 17 20 1030.6 - 0.0 - - - - - - -
21/09:30am 15.2 S 18 22 1030.8 - 0.0 - - - - - - -
21/09:00am 15.4 S 16 19 1031.0 - 0.4 Distant precip. Mostly cloudy 25 1 1.0 - S
21/08:30am 15.2 S 16 21 1030.8 - 0.4 - - - - - - -
21/08:00am 15.2 S 17 21 1031.0 - 0.4 - - - - - - -
21/07:30am 14.7 S 18 23 1030.7 - 0.4 - - - - - - -
21/07:00am 15.2 S 20 24 1030.5 - 0.4 - - - - - - -
21/06:30am 15.2 S 17 23 1030.4 - 0.4 - - - - - - -
21/06:20am 15.1 S 20 24 1030.4 - 0.4 - - - - - - -
21/06:00am 15.7 SSE 15 21 1030.6 - 0.4 - - - - - - -
21/05:30am 15.5 SSE 17 22 1030.4 - 0.4 - - - - - - -
21/05:00am 14.9 S 20 27 1030.4 - 0.4 - - - - - - -
21/04:50am 15.1 SSE 17 28 1030.3 - 0.4 - - - - - - -
21/04:30am 14.9 S 17 23 1030.2 - 0.4 - - - - - - -
21/04:00am 14.9 S 18 22 1030.2 - 0.4 - - - - - - -
21/03:30am 14.4 S 23 28 1030.0 - 0.4 - - - - - - -
21/03:00am 15.1 S 16 22 1030.5 - 0.4 - - - - - - -
21/02:30am 14.6 S 19 22 1030.6 - 0.4 - - - - - - -
21/02:17am 14.9 S 20 23 1030.6 - 0.4 - - - - - - -
21/02:00am 15.4 SSE 15 20 1030.7 - 0.4 - - - - - - -
21/01:30am 14.8 S 14 18 1031.2 - 0.4 - - - - - - -
21/01:00am 15.0 SSE 12 16 1031.4 - 0.4 - - - - - - -
21/12:30am 14.9 SSE 16 20 1031.9 - 0.4 - - - - - - -
21/12:00am 15.0 SSE 14 22 1032.0 - 0.4 - - - - - - -
 
Date/Time
EST
Temp

°C
Wind Pressure Rain
since 9am
mm
Weather Cloud Vis
km
Sea
Height
m
Swell
Dir
 
Speed
knots
Gust
knots
hPa Trend Height
m
Period
s
Dir
20/11:30pm 14.8 SSE 17 22 1032.4 - 0.4 - - - - - - -
20/11:00pm 14.6 SE 14 20 1032.7 - 0.4 - - - - - - -
20/10:30pm 14.5 S 16 19 1032.7 - 0.0 - - - - - - -
20/10:00pm 14.3 S 21 26 1032.8 - 0.0 - - - - - - -
20/09:30pm 14.1 S 16 23 1033.1 - 0.0 - - - - - - -
20/09:10pm 14.9 SSE 19 30 1033.1 - 0.0 - - - - - - -
20/09:00pm 14.9 SSE 18 21 1033.0 - 0.0 Fine Mostly clear 35 2 4.0 - S
20/08:30pm 15.0 S 18 23 1032.9 - 0.0 - - - - - - -
20/08:00pm 14.1 SSE 18 26 1032.9 - 0.0 - - - - - - -
20/07:30pm 15.1 S 17 20 1032.5 - 0.0 - - - - - - -
20/07:00pm 15.2 SSE 18 22 1032.7 - 0.0 - - - - - - -
20/06:30pm 15.0 SSE 18 23 1032.8 - 0.0 - - - - - - -
20/06:00pm 15.3 SSE 16 22 1032.4 - 0.0 - - - - - - -
20/05:30pm 15.1 SSE 18 21 1032.3 - 0.0 - - - - - - -
20/05:00pm 15.2 SSE 21 26 1032.1 - 0.0 - - - - - - -
20/04:30pm 15.7 SSE 17 23 1032.0 - 0.0 - - - - - - -
20/04:00pm 15.5 S 15 21 1032.1 - 0.0 - - - - - - -
20/03:30pm 15.2 SSE 20 27 1032.4 - 0.0 - - - - - - -
20/03:06pm 16.0 SSE 16 27 1032.1 - 0.0 - - - - - - -
20/03:00pm 15.5 SSE 19 23 1032.3 - 0.0 Distant precip. Mostly cloudy 30 2 4.0 - S
20/02:30pm 16.5 SSE 18 22 1032.0 - 0.0 - - - - - - -
20/02:00pm 16.4 SSE 19 24 1032.2 - 0.0 - - - - - - -
20/01:30pm 16.4 SSE 20 23 1032.4 - 0.0 - - - - - - -
20/01:00pm 15.6 S 18 23 1032.4 - 0.0 - - - - - - -
20/12:30pm 15.9 S 23 28 1032.4 - 0.0 - - - - - - -
20/12:00pm 16.2 SSE 21 25 1033.0 - 0.0 - - - - - - -
20/11:47am 16.1 SSE 19 29 1033.1 - 0.0 - - - - - - -
20/11:30am 16.6 SSE 18 26 1033.2 - 0.0 - - - - - - -
20/11:00am 16.3 SSE 18 23 1033.5 - 0.0 - - - - - - -
20/10:30am 16.2 SSE 18 25 1033.4 - 0.0 - - - - - - -
20/10:00am 16.3 SSE 20 25 1033.4 - 0.0 - - - - - - -
20/09:30am 16.0 SSE 22 29 1033.3 - 0.0 - - - - - - -
20/09:00am 15.8 SE 18 24 1033.3 - 16.8 Distant precip. Mostly cloudy 20 1 4.0 - S
20/08:30am 15.4 SSE 21 26 1032.8 - 16.8 - - - - - - -
20/08:00am 15.7 SSE 20 25 1032.7 - 16.8 - - - - - - -
20/07:30am 15.6 S 19 24 1032.4 - 16.8 - - - - - - -
20/07:00am 15.0 S 21 25 1031.9 - 16.8 - - - - - - -
20/06:30am 14.8 SSE 21 27 1031.7 - 16.8 - - - - - - -
20/06:00am 14.1 S 21 23 1031.8 - 16.8 - - - - - - -
20/05:40am 13.8 SSE 23 33 1031.6 - 16.8 - - - - - - -
20/05:30am 14.6 S 23 29 1031.2 - 16.8 - - - - - - -
20/05:00am 13.1 SSE 18 24 1031.2 - 16.6 - - - - - - -
20/04:42am 13.7 SE 16 27 1031.2 - 15.6 - - - - - - -
20/04:30am 14.2 SE 14 24 1030.9 - 15.4 - - - - - - -
20/04:27am 14.2 SE 15 26 1030.9 - 15.4 - - - - - - -
20/04:00am 14.5 S 21 25 1030.3 - 15.4 - - - - - - -
20/03:30am 14.4 S 23 29 1030.2 - 15.4 - - - - - - -
20/03:00am 14.4 S 19 27 1030.1 - 15.4 Recent precip. Mostly cloudy 15 2 1.0 - S
20/02:45am 14.0 S 21 31 1030.1 - 15.4 - - - - - - -
20/02:30am 13.9 SSE 23 29 1030.1 - 15.4 - - - - - - -
20/02:00am 14.3 S 22 28 1030.1 - 15.4 - - - - - - -
20/01:30am 12.9 S 29 35 1030.3 - 15.4 - - - - - - -
20/01:16am 13.8 SSW 22 32 1030.1 - 14.0 - - - - - - -
20/01:00am 13.8 S 23 28 1030.1 - 13.8 - - - - - - -
20/12:49am 11.9 S 32 43 1030.1 - 12.8 - - - - - - -
20/12:46am 13.7 S 31 35 1030.1 - 12.2 - - - - - - -
20/12:44am 14.1 SSE 20 31 1030.2 - 12.2 - - - - - - -
20/12:30am 13.8 SSE 23 29 1030.2 - 12.2 - - - - - - -
20/12:12am 15.4 S 24 34 1029.8 - 11.4 - - - - - - -
20/12:00am 15.3 S 21 29 1030.0 - 11.4 - - - - - - -
 
Date/Time
EST
Temp

°C
Wind Pressure Rain
since 9am
mm
Weather Cloud Vis
km
Sea
Height
m
Swell
Dir
 
Speed
knots
Gust
knots
hPa Trend Height
m
Period
s
Dir
19/11:51pm 15.0 S 21 27 1030.0 - 11.4 - - - - - - -
19/11:41pm 14.7 SSW 21 24 1030.2 - 11.4 - - - - - - -
19/11:30pm 14.6 S 10 17 1030.5 - 11.4 - - - - - - -
19/11:00pm 11.3 W 4 12 1030.6 - 11.4 - - - - - - -
19/10:30pm 12.9 SW 15 20 1030.6 - 11.4 - - - - - - -
19/10:00pm 14.0 SSE 19 22 1030.1 - 11.4 - - - - - - -
19/09:30pm 11.9 WSW 16 22 1029.9 - 11.4 - - - - - - -
19/09:19pm 12.7 SW 18 31 1030.1 - 11.4 - - - - - - -
19/09:17pm 14.0 S 25 31 1030.0 - 11.4 - - - - - - -
19/09:00pm 12.6 SSE 11 26 1029.3 - 11.4 Recent precip. Cloudy 10 2 1.0 - S
19/08:59pm 13.8 SSE 15 25 1029.3 - 11.4 - - - - - - -
19/08:46pm 13.0 S 16 35 1029.3 - 11.2 - - - - - - -
19/08:39pm 13.7 SSW 21 32 1029.0 - 10.2 - - - - - - -
19/08:30pm 14.0 SSW 19 23 1029.0 - 10.2 - - - - - - -
19/08:04pm 13.2 SSW 19 29 1028.8 - 9.6 - - - - - - -
19/08:00pm 13.0 SSW 20 25 1028.6 - 9.4 - - - - - - -
19/07:49pm 12.5 SSW 23 26 1028.4 - 9.2 - - - - - - -
19/07:30pm 9.7 W 23 35 1028.1 - 9.0 - - - - - - -
19/07:21pm 10.8 W 24 35 1027.8 - 6.4 - - - - - - -
19/07:00pm 11.2 W 25 31 1027.3 - 4.8 - - - - - - -
19/06:30pm 11.3 W 20 25 1027.0 - 4.0 - - - - - - -
19/06:29pm 11.5 W 20 25 1027.1 - 3.6 - - - - - - -
19/06:00pm 12.1 S 10 17 1026.1 - 2.4 - - - - - - -
19/05:44pm 12.6 S 21 32 1026.1 - 1.4 - - - - - - -
19/05:30pm 12.5 SSW 26 31 1026.1 - 0.6 - - - - - - -
19/05:15pm 13.9 SW 26 42 1025.4 - 0.4 - - - - - - -
19/05:00pm 13.3 SSW 28 35 1024.8 - 0.4 - - - - - - -
19/04:30pm 14.6 S 30 36 1024.0 - 0.4 - - - - - - -
19/04:00pm 15.2 S 25 31 1023.5 - 0.4 - - - - - - -
19/03:30pm 15.2 S 26 32 1023.0 - 0.4 - - - - - - -
19/03:02pm 15.1 S 27 37 1022.7 - 0.4 - - - - - - -
19/03:00pm 14.5 SSW 32 37 1022.5 - 0.4 Distant precip. Mostly cloudy 7 2 1.0 - S
19/02:48pm 14.6 SSW 34 38 1022.3 - 0.4 - - - - - - -
19/02:45pm 16.0 SW 22 32 1022.2 - 0.0 - - - - - - -
19/02:30pm 14.8 WSW 23 32 1022.1 - 0.0 - - - - - - -
19/02:21pm 14.9 WSW 19 29 1022.2 - 0.0 - - - - - - -
19/02:00pm 15.6 WSW 23 27 1021.8 - 0.0 - - - - - - -
19/01:30pm 15.1 W 20 27 1021.8 - 0.0 - - - - - - -
19/01:00pm 14.6 W 19 25 1022.0 - 0.0 - - - - - - -
19/12:30pm 14.0 WSW 24 31 1021.6 - 0.0 - - - - - - -
19/12:00pm 14.2 W 18 23 1021.8 - 0.0 - - - - - - -
19/11:30am 14.7 WSW 23 28 1021.8 - 0.0 - - - - - - -
19/11:00am 13.7 W 24 30 1021.6 - 0.0 - - - - - - -
19/10:30am 14.0 W 22 28 1021.4 - 0.0 - - - - - - -
19/10:00am 13.8 W 21 27 1021.1 - 0.0 - - - - - - -
19/09:30am 13.5 WSW 20 26 1021.0 - 0.0 - - - - - - -
19/09:00am 13.3 WSW 18 23 1020.6 - 4.8 Fine Cloudy 30 1 1.0 - S
19/08:30am 12.9 WSW 23 29 1020.5 - 4.8 - - - - - - -
19/08:00am 13.1 SW 20 28 1020.0 - 4.8 - - - - - - -
19/07:30am 13.6 WSW 24 30 1019.1 - 4.8 - - - - - - -
19/07:00am 13.5 WSW 21 26 1018.3 - 4.8 - - - - - - -

Other Formats:

Comma delimited format used in spreadsheet applications
http://www.bom.gov.au/fwo/IDN60701/IDN60701.94933.axf

JavaScript Object Notation format (JSON) in row-major order
http://www.bom.gov.au/fwo/IDN60701/IDN60701.94933.json